Time;durP1;ratioP1;P1;durP2;ratioP2;P2;SDS_P1;SDS_P2;PMS_P1;PMS_P2;Temp;Humidity;BMP_temperature;BMP_pressure;BME280_temperature;BME280_humidity;BME280_pressure;Samples;Min_cycle;Max_cycle;Signal;HPM_P1;HPM_P2
2022/06/29 00:02:25;;;;;;;1.20;0.77;;;;;;;;;;4827031;29;20042;-79
2022/06/29 00:04:51;;;;;;;2.03;1.00;;;;;;;;;;4843513;29;20273;-77
2022/06/29 00:07:17;;;;;;;2.60;1.50;;;;;;;;;;4831096;29;20541;-77
2022/06/29 00:09:42;;;;;;;3.38;1.40;;;;;;;;;;4843877;29;20102;-79
2022/06/29 00:12:08;;;;;;;2.38;1.20;;;;;;;;;;4844023;29;20045;-79
2022/06/29 00:14:41;;;;;;;2.75;1.30;;;;;;;;;;4841302;29;20041;-77
2022/06/29 00:17:10;;;;;;;3.92;1.33;;;;;;;;;;4843459;29;20379;-79
2022/06/29 00:19:36;;;;;;;2.72;1.00;;;;;;;;;;4823540;29;20045;-78
2022/06/29 00:22:02;;;;;;;3.00;1.15;;;;;;;;;;4835674;29;20034;-78
2022/06/29 00:24:29;;;;;;;1.50;1.05;;;;;;;;;;4840837;29;20050;-78
2022/06/29 00:26:54;;;;;;;1.15;0.95;;;;;;;;;;4826692;29;20046;-79
2022/06/29 00:29:19;;;;;;;4.72;1.10;;;;;;;;;;4841189;29;20038;-79
2022/06/29 00:31:45;;;;;;;1.80;0.90;;;;;;;;;;4842602;29;20038;-78
2022/06/29 00:34:11;;;;;;;1.98;1.00;;;;;;;;;;4844134;29;20069;-76
2022/06/29 00:36:36;;;;;;;3.60;1.08;;;;;;;;;;4847803;29;20037;-79
2022/06/29 00:39:01;;;;;;;2.22;1.08;;;;;;;;;;4847044;29;20053;-79
2022/06/29 00:41:27;;;;;;;1.58;1.02;;;;;;;;;;4842557;29;20056;-78
2022/06/29 00:43:52;;;;;;;1.98;0.82;;;;;;;;;;4849428;29;20041;-80
2022/06/29 00:46:17;;;;;;;2.55;0.80;;;;;;;;;;4847466;29;20038;-80
2022/06/29 00:48:43;;;;;;;3.83;0.88;;;;;;;;;;4842876;29;20039;-78
2022/06/29 00:51:11;;;;;;;1.95;1.00;;;;;;;;;;4845698;29;20057;-79
2022/06/29 00:53:41;;;;;;;1.20;0.85;;;;;;;;;;4847541;29;20052;-79
2022/06/29 00:56:10;;;;;;;1.23;0.95;;;;;;;;;;4840814;29;20060;-77
2022/06/29 00:58:38;;;;;;;3.10;1.10;;;;;;;;;;4831600;29;20037;-79
2022/06/29 01:01:04;;;;;;;1.73;1.00;;;;;;;;;;4850055;29;20478;-79
2022/06/29 01:03:32;;;;;;;1.77;0.90;;;;;;;;;;4845609;29;20042;-79
2022/06/29 01:06:00;;;;;;;1.70;1.10;;;;;;;;;;4840494;29;20038;-79
2022/06/29 01:08:25;;;;;;;2.05;1.05;;;;;;;;;;4823800;29;20042;-79
2022/06/29 01:10:51;;;;;;;1.70;1.30;;;;;;;;;;4843611;29;20559;-77
2022/06/29 01:13:16;;;;;;;3.45;1.13;;;;;;;;;;4836616;29;20030;-78
2022/06/29 01:15:42;;;;;;;2.65;1.25;;;;;;;;;;4838384;29;20120;-77
2022/06/29 01:18:07;;;;;;;4.50;1.42;;;;;;;;;;4823873;29;20049;-75
2022/06/29 01:20:33;;;;;;;2.30;1.40;;;;;;;;;;4841923;29;20066;-77
2022/06/29 01:22:59;;;;;;;5.20;1.40;;;;;;;;;;4843456;29;20034;-76
2022/06/29 01:25:25;;;;;;;2.88;1.38;;;;;;;;;;4839358;29;20490;-76
2022/06/29 01:27:50;;;;;;;1.98;1.40;;;;;;;;;;4821421;29;20063;-78
2022/06/29 01:30:15;;;;;;;2.88;1.40;;;;;;;;;;4836756;29;20070;-79
2022/06/29 01:32:42;;;;;;;1.90;1.20;;;;;;;;;;4839492;29;20048;-77
2022/06/29 01:35:10;;;;;;;1.35;1.17;;;;;;;;;;4842156;29;20405;-74
2022/06/29 01:37:35;;;;;;;2.67;1.40;;;;;;;;;;4843506;29;20026;-78
2022/06/29 01:40:05;;;;;;;1.67;1.20;;;;;;;;;;4841763;29;20120;-79
2022/06/29 01:42:30;;;;;;;3.40;1.20;;;;;;;;;;4834819;29;20050;-77
2022/06/29 01:44:56;;;;;;;2.40;1.20;;;;;;;;;;4840117;29;20090;-75
2022/06/29 01:47:21;;;;;;;1.77;1.00;;;;;;;;;;4840985;29;20069;-77
2022/06/29 01:49:46;;;;;;;3.25;1.00;;;;;;;;;;4848698;29;20034;-75
2022/06/29 01:52:12;;;;;;;1.55;1.13;;;;;;;;;;4854088;29;20129;-79
2022/06/29 01:54:37;;;;;;;2.10;1.20;;;;;;;;;;4847711;29;20065;-79
2022/06/29 01:57:03;;;;;;;1.77;1.02;;;;;;;;;;4844310;29;20045;-78
2022/06/29 01:59:28;;;;;;;1.83;1.17;;;;;;;;;;4826791;29;20065;-78
2022/06/29 02:01:54;;;;;;;2.13;1.27;;;;;;;;;;4850357;29;20502;-78
2022/06/29 02:04:19;;;;;;;3.00;1.08;;;;;;;;;;4842720;29;20040;-78
2022/06/29 02:06:45;;;;;;;2.35;1.08;;;;;;;;;;4833538;29;20030;-77
2022/06/29 02:09:10;;;;;;;1.75;1.27;;;;;;;;;;4843727;29;20159;-75
2022/06/29 02:11:36;;;;;;;1.95;1.20;;;;;;;;;;4837639;29;20076;-78
2022/06/29 02:14:01;;;;;;;2.88;1.20;;;;;;;;;;4842287;29;20117;-79
2022/06/29 02:16:27;;;;;;;2.03;1.10;;;;;;;;;;4835694;29;20033;-77
2022/06/29 02:18:53;;;;;;;1.58;1.20;;;;;;;;;;4843155;29;20076;-78
2022/06/29 02:21:18;;;;;;;2.83;0.90;;;;;;;;;;4842539;29;20057;-78
2022/06/29 02:23:44;;;;;;;3.58;1.27;;;;;;;;;;4844631;29;20058;-78
2022/06/29 02:26:10;;;;;;;1.55;1.10;;;;;;;;;;4843812;29;20473;-77
2022/06/29 02:28:36;;;;;;;1.63;1.08;;;;;;;;;;4842102;29;20069;-78
2022/06/29 02:36:30;;;;;;;1.92;1.10;;;;;;;;;;4842563;29;20545;-78
2022/06/29 02:38:55;;;;;;;1.10;1.00;;;;;;;;;;4844391;29;20374;-77
2022/06/29 02:41:20;;;;;;;2.75;0.95;;;;;;;;;;4844483;29;20113;-77
2022/06/29 02:43:46;;;;;;;1.30;1.17;;;;;;;;;;4844924;29;20049;-80
2022/06/29 02:46:12;;;;;;;1.15;0.90;;;;;;;;;;4848299;29;20120;-73
2022/06/29 02:48:37;;;;;;;0.80;0.80;;;;;;;;;;4842251;29;20070;-74
2022/06/29 02:51:03;;;;;;;3.13;1.33;;;;;;;;;;4843720;29;20061;-73
2022/06/29 02:53:28;;;;;;;1.23;1.10;;;;;;;;;;4844994;29;20041;-73
2022/06/29 02:55:54;;;;;;;1.10;1.00;;;;;;;;;;4843495;29;20483;-74
2022/06/29 02:58:19;;;;;;;1.23;1.10;;;;;;;;;;4826512;29;20403;-74
2022/06/29 03:00:45;;;;;;;0.98;0.93;;;;;;;;;;4822903;29;20040;-74
2022/06/29 03:03:10;;;;;;;1.80;1.30;;;;;;;;;;4838755;29;20049;-75
2022/06/29 03:05:35;;;;;;;1.10;1.10;;;;;;;;;;4836183;29;20476;-74
2022/06/29 03:08:01;;;;;;;5.32;1.08;;;;;;;;;;4834994;29;20076;-75
2022/06/29 03:10:26;;;;;;;2.00;1.30;;;;;;;;;;4835305;29;20174;-74
2022/06/29 03:12:52;;;;;;;3.42;1.00;;;;;;;;;;4822774;29;20037;-74
2022/06/29 03:15:18;;;;;;;2.38;1.05;;;;;;;;;;4836005;29;20042;-75
2022/06/29 03:17:43;;;;;;;1.08;0.98;;;;;;;;;;4840119;29;20057;-74
2022/06/29 03:20:09;;;;;;;1.60;1.20;;;;;;;;;;4837157;29;20534;-74
2022/06/29 03:22:35;;;;;;;1.30;1.15;;;;;;;;;;4841117;29;20149;-74
2022/06/29 03:25:00;;;;;;;1.58;1.00;;;;;;;;;;4841768;29;20109;-73
2022/06/29 03:27:26;;;;;;;1.17;1.10;;;;;;;;;;4838587;29;20080;-74
2022/06/29 03:29:52;;;;;;;4.47;1.13;;;;;;;;;;4846977;29;20456;-74
2022/06/29 03:32:17;;;;;;;5.85;1.20;;;;;;;;;;4836447;29;20436;-74
2022/06/29 03:34:43;;;;;;;1.20;1.05;;;;;;;;;;4838312;29;20041;-73
2022/06/29 03:37:08;;;;;;;2.25;1.20;;;;;;;;;;4838173;29;20017;-75
2022/06/29 03:39:33;;;;;;;4.95;1.10;;;;;;;;;;4840558;29;20050;-74
2022/06/29 03:41:59;;;;;;;2.05;1.30;;;;;;;;;;4838479;29;20037;-74
2022/06/29 03:44:25;;;;;;;3.90;1.20;;;;;;;;;;4841990;29;20141;-77
2022/06/29 03:46:50;;;;;;;1.38;1.23;;;;;;;;;;4834852;29;20415;-75
2022/06/29 03:49:16;;;;;;;1.55;1.17;;;;;;;;;;4834588;29;20395;-74
2022/06/29 03:51:41;;;;;;;1.90;1.00;;;;;;;;;;4836084;29;20045;-75
2022/06/29 03:54:06;;;;;;;2.97;1.20;;;;;;;;;;4838656;29;20038;-74
2022/06/29 03:56:32;;;;;;;1.52;1.15;;;;;;;;;;4838169;29;20049;-74
2022/06/29 03:58:57;;;;;;;2.60;1.20;;;;;;;;;;4837559;29;20482;-74
2022/06/29 04:01:22;;;;;;;1.20;1.10;;;;;;;;;;4838872;29;20030;-75
2022/06/29 04:03:48;;;;;;;1.33;1.17;;;;;;;;;;4823820;29;20046;-75
2022/06/29 04:06:13;;;;;;;3.40;1.15;;;;;;;;;;4842147;29;20041;-75
2022/06/29 04:08:39;;;;;;;1.92;1.20;;;;;;;;;;4837242;29;20081;-74
2022/06/29 04:11:48;;;;;;;2.85;1.35;;;;;;;;;;4839110;29;20037;-74
2022/06/29 04:13:53;;;;;;;2.67;1.17;;;;;;;;;;4834356;29;20113;-74
2022/06/29 04:16:19;;;;;;;2.25;1.30;;;;;;;;;;4840813;29;20081;-75
2022/06/29 04:18:44;;;;;;;1.45;1.08;;;;;;;;;;4838524;29;20050;-74
2022/06/29 04:21:09;;;;;;;2.65;1.33;;;;;;;;;;4839837;29;20046;-74
2022/06/29 04:23:35;;;;;;;4.45;1.23;;;;;;;;;;4836022;29;20034;-74
2022/06/29 04:26:00;;;;;;;2.05;1.42;;;;;;;;;;4838275;29;20046;-74
2022/06/29 04:28:26;;;;;;;3.95;1.15;;;;;;;;;;4839894;29;20394;-74
2022/06/29 04:30:51;;;;;;;5.90;1.48;;;;;;;;;;4836846;29;20086;-74
2022/06/29 04:33:16;;;;;;;3.80;1.33;;;;;;;;;;4840701;29;20045;-74
2022/06/29 04:35:42;;;;;;;1.60;1.30;;;;;;;;;;4844142;29;20050;-74
2022/06/29 04:38:07;;;;;;;1.95;1.20;;;;;;;;;;4842796;29;20042;-75
2022/06/29 04:40:32;;;;;;;3.35;1.48;;;;;;;;;;4843222;29;20033;-74
2022/06/29 04:42:58;;;;;;;2.65;1.30;;;;;;;;;;4844354;29;20034;-74
2022/06/29 04:48:07;;;;;;;3.15;1.30;;;;;;;;;;4844144;29;20411;-74
2022/06/29 04:50:32;;;;;;;2.47;1.60;;;;;;;;;;4843609;29;20042;-74
2022/06/29 04:52:58;;;;;;;2.15;1.70;;;;;;;;;;4840566;29;20052;-74
2022/06/29 04:55:25;;;;;;;2.25;1.60;;;;;;;;;;4843389;29;20468;-74
2022/06/29 04:57:51;;;;;;;5.57;1.55;;;;;;;;;;4844329;29;20025;-73
2022/06/29 05:00:17;;;;;;;2.42;1.70;;;;;;;;;;4837256;29;20034;-75
2022/06/29 05:02:42;;;;;;;3.03;1.40;;;;;;;;;;4838270;29;20090;-75
2022/06/29 05:05:08;;;;;;;3.28;1.45;;;;;;;;;;4836606;29;20053;-75
2022/06/29 05:07:33;;;;;;;3.17;1.30;;;;;;;;;;4836643;29;20033;-75
2022/06/29 05:09:59;;;;;;;4.72;1.58;;;;;;;;;;4838887;29;20121;-75
2022/06/29 05:12:24;;;;;;;3.85;1.50;;;;;;;;;;4839125;29;20567;-75
2022/06/29 05:14:49;;;;;;;4.68;1.92;;;;;;;;;;4837084;29;20494;-75
2022/06/29 05:17:15;;;;;;;3.50;1.40;;;;;;;;;;4834996;29;20084;-74
2022/06/29 05:19:40;;;;;;;5.07;1.55;;;;;;;;;;4834871;29;20042;-74
2022/06/29 05:22:06;;;;;;;3.15;1.70;;;;;;;;;;4842812;29;20063;-74
2022/06/29 05:24:31;;;;;;;2.10;1.67;;;;;;;;;;4839074;29;20137;-74
2022/06/29 05:26:57;;;;;;;2.78;1.80;;;;;;;;;;4840828;29;20042;-75
2022/06/29 05:29:24;;;;;;;3.40;1.83;;;;;;;;;;4837638;29;20132;-74
2022/06/29 05:31:49;;;;;;;4.15;1.77;;;;;;;;;;4839245;29;20069;-75
2022/06/29 05:34:14;;;;;;;2.22;1.70;;;;;;;;;;4840251;29;20064;-74
2022/06/29 05:36:40;;;;;;;2.83;1.88;;;;;;;;;;4838723;29;20038;-75
2022/06/29 05:39:05;;;;;;;1.98;1.52;;;;;;;;;;4843168;29;20046;-74
2022/06/29 05:41:30;;;;;;;3.67;1.63;;;;;;;;;;4827046;29;20112;-74
2022/06/29 05:43:56;;;;;;;2.22;1.65;;;;;;;;;;4842752;29;20049;-74
2022/06/29 05:46:22;;;;;;;3.08;1.60;;;;;;;;;;4843564;29;20033;-74
2022/06/29 05:48:47;;;;;;;3.22;1.50;;;;;;;;;;4846419;29;20069;-74
2022/06/29 05:51:13;;;;;;;5.45;2.00;;;;;;;;;;4843996;29;20088;-74
2022/06/29 05:53:38;;;;;;;4.22;2.10;;;;;;;;;;4838901;29;20075;-74
2022/06/29 05:56:03;;;;;;;3.75;1.90;;;;;;;;;;4839830;29;20069;-74
2022/06/29 05:58:29;;;;;;;5.97;1.75;;;;;;;;;;4842294;29;20037;-74
2022/06/29 06:00:54;;;;;;;4.68;1.80;;;;;;;;;;4839388;29;20058;-75
2022/06/29 06:03:19;;;;;;;6.75;2.10;;;;;;;;;;4843702;29;20094;-76
2022/06/29 06:05:45;;;;;;;2.58;1.60;;;;;;;;;;4839773;29;20042;-74
2022/06/29 06:08:13;;;;;;;4.72;2.35;;;;;;;;;;4839274;29;20042;-74
2022/06/29 06:10:39;;;;;;;5.53;2.00;;;;;;;;;;4843379;29;20048;-74
2022/06/29 06:13:05;;;;;;;2.63;1.88;;;;;;;;;;4829623;29;20038;-75
2022/06/29 06:15:32;;;;;;;14.07;2.20;;;;;;;;;;4841206;29;20046;-74
2022/06/29 06:17:57;;;;;;;6.20;2.53;;;;;;;;;;4847899;29;20063;-76
2022/06/29 06:20:23;;;;;;;2.53;1.88;;;;;;;;;;4841667;29;20038;-75
2022/06/29 06:22:48;;;;;;;4.45;2.13;;;;;;;;;;4846325;29;20129;-73
2022/06/29 06:25:14;;;;;;;3.17;2.42;;;;;;;;;;4842487;29;20416;-73
2022/06/29 06:27:39;;;;;;;4.85;2.05;;;;;;;;;;4839821;29;20502;-73
2022/06/29 06:30:05;;;;;;;7.88;2.45;;;;;;;;;;4839679;29;20497;-74
2022/06/29 06:32:30;;;;;;;4.00;2.00;;;;;;;;;;4847199;29;20037;-74
2022/06/29 06:34:56;;;;;;;6.10;2.40;;;;;;;;;;4847645;29;20061;-75
2022/06/29 06:37:21;;;;;;;4.15;2.20;;;;;;;;;;4849390;29;20049;-74
2022/06/29 06:41:21;;;;;;;6.80;2.47;;;;;;;;;;4846568;29;20397;-74
2022/06/29 06:42:32;;;;;;;2.20;2.08;;;;;;;;;;4850338;29;20052;-74
2022/06/29 06:44:57;;;;;;;5.75;2.17;;;;;;;;;;4853157;29;20038;-74
2022/06/29 06:47:22;;;;;;;3.33;2.38;;;;;;;;;;4851594;29;20038;-74
2022/06/29 06:49:48;;;;;;;6.32;2.20;;;;;;;;;;4852506;29;20506;-74
2022/06/29 06:52:16;;;;;;;2.95;2.40;;;;;;;;;;4854343;29;20037;-74
2022/06/29 06:54:42;;;;;;;17.05;3.10;;;;;;;;;;4853828;29;20117;-75
2022/06/29 06:57:07;;;;;;;15.35;3.83;;;;;;;;;;4852994;29;20053;-75
2022/06/29 06:59:32;;;;;;;10.18;4.03;;;;;;;;;;4851083;29;20041;-74
2022/06/29 07:01:58;;;;;;;4.57;2.30;;;;;;;;;;4843925;29;20050;-75
2022/06/29 07:04:23;;;;;;;4.63;2.30;;;;;;;;;;4843649;29;20030;-74
2022/06/29 07:06:48;;;;;;;80.32;7.88;;;;;;;;;;4844296;29;20033;-74
2022/06/29 07:09:14;;;;;;;20.08;4.47;;;;;;;;;;4839831;29;20042;-74
2022/06/29 07:11:39;;;;;;;25.50;4.00;;;;;;;;;;4839426;29;20057;-73
2022/06/29 07:14:04;;;;;;;8.40;3.20;;;;;;;;;;4838301;29;20038;-74
2022/06/29 07:16:30;;;;;;;8.93;2.80;;;;;;;;;;4835966;29;20069;-73
2022/06/29 07:18:55;;;;;;;6.30;2.67;;;;;;;;;;4842128;29;20044;-71
2022/06/29 07:21:21;;;;;;;5.57;3.03;;;;;;;;;;4836688;29;20494;-74
2022/06/29 07:23:46;;;;;;;8.65;2.97;;;;;;;;;;4839240;29;20037;-74
2022/06/29 07:26:12;;;;;;;4.45;3.00;;;;;;;;;;4832894;29;20046;-75
2022/06/29 07:28:39;;;;;;;5.25;2.78;;;;;;;;;;4836013;29;20053;-75
2022/06/29 07:31:05;;;;;;;6.60;3.08;;;;;;;;;;4837221;29;20033;-74
2022/06/29 07:33:30;;;;;;;4.10;2.78;;;;;;;;;;4840848;29;20079;-74
2022/06/29 07:35:56;;;;;;;6.05;3.10;;;;;;;;;;4843584;29;20066;-75
2022/06/29 07:38:21;;;;;;;5.22;2.72;;;;;;;;;;4840348;29;20050;-75
2022/06/29 07:40:47;;;;;;;6.30;3.10;;;;;;;;;;4846957;29;20037;-75
2022/06/29 07:43:12;;;;;;;4.60;3.28;;;;;;;;;;4822726;29;20034;-73
2022/06/29 07:45:37;;;;;;;5.72;2.80;;;;;;;;;;4835691;29;20483;-75
2022/06/29 07:48:03;;;;;;;6.40;3.03;;;;;;;;;;4839032;29;20264;-75
2022/06/29 07:50:29;;;;;;;5.90;2.90;;;;;;;;;;4838341;29;20056;-73
2022/06/29 07:52:54;;;;;;;6.72;2.80;;;;;;;;;;4836345;29;20042;-72
2022/06/29 07:55:20;;;;;;;6.57;2.67;;;;;;;;;;4841429;29;20471;-72
2022/06/29 07:57:45;;;;;;;4.75;2.90;;;;;;;;;;4839503;29;20034;-73
2022/06/29 08:00:11;;;;;;;6.63;3.10;;;;;;;;;;4836406;29;20037;-74
2022/06/29 08:02:36;;;;;;;5.78;2.92;;;;;;;;;;4833823;29;20060;-74
2022/06/29 08:05:02;;;;;;;4.72;2.70;;;;;;;;;;4838102;29;20046;-74
2022/06/29 08:07:28;;;;;;;5.65;3.13;;;;;;;;;;4841974;29;20049;-75
2022/06/29 08:09:53;;;;;;;7.53;3.10;;;;;;;;;;4842180;29;20714;-74
2022/06/29 08:12:20;;;;;;;3.65;2.97;;;;;;;;;;4840579;29;20049;-73
2022/06/29 08:14:45;;;;;;;5.30;3.13;;;;;;;;;;4835805;29;20157;-72
2022/06/29 08:17:10;;;;;;;3.45;2.67;;;;;;;;;;4833883;29;20082;-74
2022/06/29 08:19:36;;;;;;;6.43;3.20;;;;;;;;;;4839522;29;20038;-73
2022/06/29 08:22:01;;;;;;;6.22;3.20;;;;;;;;;;4836951;29;20040;-72
2022/06/29 08:24:28;;;;;;;3.22;2.92;;;;;;;;;;4843140;29;20135;-74
2022/06/29 08:26:53;;;;;;;5.35;3.08;;;;;;;;;;4832570;29;20061;-73
2022/06/29 08:29:20;;;;;;;5.13;3.17;;;;;;;;;;4837882;29;20043;-74
2022/06/29 08:31:46;;;;;;;3.95;2.90;;;;;;;;;;4833730;29;20130;-72
2022/06/29 08:34:14;;;;;;;5.25;3.42;;;;;;;;;;4846200;29;20029;-73
2022/06/29 08:36:39;;;;;;;4.55;3.20;;;;;;;;;;4838307;29;20145;-74
2022/06/29 08:39:05;;;;;;;6.15;3.50;;;;;;;;;;4842263;29;20120;-72
2022/06/29 08:41:32;;;;;;;7.28;3.40;;;;;;;;;;4842187;29;20082;-72
2022/06/29 08:44:01;;;;;;;3.65;3.10;;;;;;;;;;4841033;29;20057;-73
2022/06/29 08:46:27;;;;;;;4.95;3.05;;;;;;;;;;4839829;29;20069;-75
2022/06/29 08:48:52;;;;;;;4.32;3.10;;;;;;;;;;4848607;29;20447;-75
2022/06/29 08:51:20;;;;;;;7.40;3.22;;;;;;;;;;4836864;29;20086;-73
2022/06/29 08:53:46;;;;;;;8.23;3.20;;;;;;;;;;4842207;29;20041;-74
2022/06/29 08:56:12;;;;;;;8.90;3.40;;;;;;;;;;4843222;29;20046;-73
2022/06/29 08:58:40;;;;;;;5.05;3.45;;;;;;;;;;4824579;29;20037;-73
2022/06/29 09:01:05;;;;;;;7.40;3.30;;;;;;;;;;4849047;29;20100;-73
2022/06/29 09:03:31;;;;;;;6.28;3.38;;;;;;;;;;4845908;29;20053;-73
2022/06/29 09:06:01;;;;;;;8.73;3.30;;;;;;;;;;4845349;29;20414;-73
2022/06/29 09:08:26;;;;;;;4.35;3.35;;;;;;;;;;4842516;29;20168;-73
2022/06/29 09:10:52;;;;;;;6.03;3.38;;;;;;;;;;4839598;29;20526;-73
2022/06/29 09:13:24;;;;;;;7.03;3.20;;;;;;;;;;4841749;29;20509;-72
2022/06/29 09:15:59;;;;;;;;;;;;;;;;;;4840812;29;20054;-73
2022/06/29 09:18:31;;;;;;;6.85;3.45;;;;;;;;;;4840359;29;20358;-73
2022/06/29 09:21:03;;;;;;;6.75;3.55;;;;;;;;;;4844140;29;20473;-72
2022/06/29 09:23:30;;;;;;;5.05;3.63;;;;;;;;;;4853031;29;20034;-74
2022/06/29 09:25:56;;;;;;;6.90;3.58;;;;;;;;;;4849201;29;20525;-73
2022/06/29 09:28:24;;;;;;;10.00;3.55;;;;;;;;;;4847626;29;20057;-73
2022/06/29 09:30:52;;;;;;;4.63;3.60;;;;;;;;;;4845014;29;20113;-73
2022/06/29 09:33:19;;;;;;;7.15;3.38;;;;;;;;;;4838581;29;20042;-73
2022/06/29 09:36:04;;;;;;;6.60;3.30;;;;;;;;;;4848901;29;20097;-73
2022/06/29 09:38:29;;;;;;;6.35;3.53;;;;;;;;;;4838804;29;21166;-72
2022/06/29 09:41:07;;;;;;;10.82;3.47;;;;;;;;;;4843574;29;20117;-72
2022/06/29 09:43:37;;;;;;;5.20;3.17;;;;;;;;;;4838351;29;20121;-73
2022/06/29 09:46:04;;;;;;;4.05;3.50;;;;;;;;;;4822959;29;20040;-73
2022/06/29 09:48:32;;;;;;;8.25;3.50;;;;;;;;;;4837896;29;20045;-72
2022/06/29 09:50:58;;;;;;;6.13;3.40;;;;;;;;;;4839771;29;20090;-75
2022/06/29 09:53:39;;;;;;;6.47;3.25;;;;;;;;;;4841093;29;20094;-75
2022/06/29 09:56:07;;;;;;;6.15;3.67;;;;;;;;;;4836843;29;20049;-71
2022/06/29 09:58:46;;;;;;;7.90;3.67;;;;;;;;;;4832979;29;20045;-75
2022/06/29 10:03:57;;;;;;;7.78;3.58;;;;;;;;;;4840155;29;20048;-75
2022/06/29 10:06:24;;;;;;;5.47;3.63;;;;;;;;;;4840164;29;20057;-72
2022/06/29 10:08:51;;;;;;;10.50;4.13;;;;;;;;;;4839131;29;20038;-70
2022/06/29 10:14:38;;;;;;;7.22;3.83;;;;;;;;;;4839999;29;20053;-72
2022/06/29 10:17:31;;;;;;;6.65;4.00;;;;;;;;;;4839253;29;20216;-74
2022/06/29 10:20:18;;;;;;;8.68;4.07;;;;;;;;;;4841364;29;20498;-74
2022/06/29 10:22:45;;;;;;;4.70;4.07;;;;;;;;;;4836631;29;20109;-72
2022/06/29 10:25:12;;;;;;;7.72;4.25;;;;;;;;;;4839942;29;20041;-72
2022/06/29 10:27:38;;;;;;;5.45;3.50;;;;;;;;;;4838912;29;20033;-72
2022/06/29 10:30:24;;;;;;;5.13;3.92;;;;;;;;;;4834947;29;20049;-73
2022/06/29 10:32:50;;;;;;;5.93;3.92;;;;;;;;;;4841161;29;20070;-73
2022/06/29 10:35:16;;;;;;;5.53;4.15;;;;;;;;;;4840981;29;20045;-73
2022/06/29 10:37:53;;;;;;;4.53;3.63;;;;;;;;;;4844847;29;20037;-73
2022/06/29 10:40:24;;;;;;;4.88;3.80;;;;;;;;;;4849971;29;20041;-72
2022/06/29 10:43:09;;;;;;;4.75;3.50;;;;;;;;;;4809097;29;1114978;-73
2022/06/29 10:45:36;;;;;;;4.93;4.10;;;;;;;;;;4845937;29;20050;-72
2022/06/29 10:48:06;;;;;;;5.30;3.95;;;;;;;;;;4843081;29;20045;-73
2022/06/29 10:50:32;;;;;;;6.32;3.53;;;;;;;;;;4846990;29;20045;-71
2022/06/29 10:53:04;;;;;;;6.13;4.07;;;;;;;;;;4853700;29;20037;-76
2022/06/29 10:55:31;;;;;;;7.47;4.00;;;;;;;;;;4841807;29;20429;-72
2022/06/29 10:57:58;;;;;;;4.57;3.78;;;;;;;;;;4844602;29;20041;-72
2022/06/29 11:00:29;;;;;;;8.05;3.90;;;;;;;;;;4851322;29;20046;-72
2022/06/29 11:02:55;;;;;;;5.55;3.80;;;;;;;;;;4844467;29;20046;-73
2022/06/29 11:05:20;;;;;;;5.00;3.80;;;;;;;;;;4842445;29;20039;-73
2022/06/29 11:13:25;;;;;;;5.03;3.75;;;;;;;;;;4843122;29;20107;-72
2022/06/29 11:15:53;;;;;;;4.20;3.60;;;;;;;;;;4835012;29;20054;-73
2022/06/29 11:18:30;;;;;;;5.70;3.75;;;;;;;;;;4837164;29;20091;-72
2022/06/29 11:21:02;;;;;;;7.68;4.10;;;;;;;;;;4839650;29;20464;-73
2022/06/29 11:23:28;;;;;;;;;;;;;;;;;;4836370;29;20065;-73
2022/06/29 11:25:56;;;;;;;4.40;3.55;;;;;;;;;;4834203;29;21523;-71
2022/06/29 11:28:40;;;;;;;6.07;4.15;;;;;;;;;;4834606;29;20021;-74
2022/06/29 11:31:08;;;;;;;8.93;4.45;;;;;;;;;;4820754;29;20109;-70
2022/06/29 11:33:37;;;;;;;5.20;3.80;;;;;;;;;;4836792;29;20106;-73
2022/06/29 11:36:16;;;;;;;7.18;4.05;;;;;;;;;;4836153;29;20038;-72
2022/06/29 11:38:46;;;;;;;6.93;4.28;;;;;;;;;;4842052;29;20042;-73
2022/06/29 11:43:03;;;;;;;4.63;3.97;;;;;;;;;;4835943;29;20040;-72
2022/06/29 11:44:27;;;;;;;5.35;4.38;;;;;;;;;;4833163;29;20442;-72
2022/06/29 11:46:53;;;;;;;3.95;3.42;;;;;;;;;;4837962;29;20786;-74
2022/06/29 11:49:33;;;;;;;4.55;3.88;;;;;;;;;;4838747;29;20030;-74
2022/06/29 11:52:03;;;;;;;5.65;4.00;;;;;;;;;;4818802;29;20060;-71
2022/06/29 11:54:52;;;;;;;5.60;3.92;;;;;;;;;;4837114;29;20045;-71
2022/06/29 11:57:19;;;;;;;5.35;3.90;;;;;;;;;;4843244;29;20048;-72
2022/06/29 11:59:47;;;;;;;5.10;3.78;;;;;;;;;;4836067;29;20041;-70
2022/06/29 12:02:14;;;;;;;4.40;3.83;;;;;;;;;;4833612;29;20581;-72
2022/06/29 12:04:41;;;;;;;10.98;4.22;;;;;;;;;;4834180;29;20071;-72
2022/06/29 12:07:09;;;;;;;7.45;3.97;;;;;;;;;;4836413;29;20106;-72
2022/06/29 12:09:37;;;;;;;5.93;3.67;;;;;;;;;;4834077;29;20072;-71
2022/06/29 12:12:04;;;;;;;8.48;4.18;;;;;;;;;;4837002;29;20050;-72
2022/06/29 12:14:30;;;;;;;4.53;3.78;;;;;;;;;;4841408;29;20060;-71
2022/06/29 12:16:56;;;;;;;7.07;3.83;;;;;;;;;;4840436;29;20037;-72
2022/06/29 12:19:22;;;;;;;4.47;3.90;;;;;;;;;;4843484;29;20506;-71
2022/06/29 12:21:50;;;;;;;5.05;4.22;;;;;;;;;;4839214;29;20044;-72
2022/06/29 12:24:17;;;;;;;5.38;4.03;;;;;;;;;;4841525;29;20050;-72
2022/06/29 12:26:43;;;;;;;6.43;4.00;;;;;;;;;;4838050;29;20046;-73
2022/06/29 12:29:08;;;;;;;7.82;4.32;;;;;;;;;;4838118;29;20064;-72
2022/06/29 12:31:36;;;;;;;5.70;3.90;;;;;;;;;;4842231;29;20025;-73
2022/06/29 12:34:03;;;;;;;6.07;4.28;;;;;;;;;;4831602;29;20037;-72
2022/06/29 12:36:28;;;;;;;4.13;3.70;;;;;;;;;;4844935;29;20518;-72
2022/06/29 12:38:53;;;;;;;4.50;3.58;;;;;;;;;;4848116;29;20058;-71
2022/06/29 12:41:19;;;;;;;6.25;3.90;;;;;;;;;;4845656;29;20549;-71
2022/06/29 12:43:44;;;;;;;9.02;3.80;;;;;;;;;;4844937;29;20042;-70
2022/06/29 12:46:10;;;;;;;6.43;3.97;;;;;;;;;;4847387;29;20062;-72
2022/06/29 12:48:35;;;;;;;5.38;4.05;;;;;;;;;;4846260;29;20053;-70
2022/06/29 12:51:00;;;;;;;8.00;4.00;;;;;;;;;;4846615;29;20411;-71
2022/06/29 12:53:26;;;;;;;4.30;3.90;;;;;;;;;;4850753;29;20046;-71
2022/06/29 12:55:51;;;;;;;5.53;4.05;;;;;;;;;;4846542;29;20042;-71
2022/06/29 12:58:17;;;;;;;4.32;3.92;;;;;;;;;;4844133;29;20045;-71
2022/06/29 13:00:49;;;;;;;6.85;4.10;;;;;;;;;;4809615;29;20533;-72
2022/06/29 13:03:14;;;;;;;4.80;3.85;;;;;;;;;;4836586;29;20050;-72
2022/06/29 13:05:41;;;;;;;4.32;3.83;;;;;;;;;;4840719;29;20041;-71
2022/06/29 13:08:07;;;;;;;8.13;3.88;;;;;;;;;;4841130;29;20045;-71
2022/06/29 13:10:33;;;;;;;4.65;4.18;;;;;;;;;;4826750;29;20041;-71
2022/06/29 13:13:00;;;;;;;5.78;4.20;;;;;;;;;;4845013;29;20627;-72
2022/06/29 13:15:26;;;;;;;6.07;3.90;;;;;;;;;;4838641;29;20529;-72
2022/06/29 13:17:52;;;;;;;6.95;3.78;;;;;;;;;;4839477;29;20042;-72
2022/06/29 13:20:18;;;;;;;8.40;4.38;;;;;;;;;;4842026;29;20133;-71
2022/06/29 13:22:44;;;;;;;4.50;3.65;;;;;;;;;;4838759;29;20060;-72
2022/06/29 13:25:09;;;;;;;6.45;4.07;;;;;;;;;;4837678;29;20543;-72
2022/06/29 13:27:35;;;;;;;7.22;4.10;;;;;;;;;;4822450;29;20034;-71
2022/06/29 13:30:01;;;;;;;7.90;4.50;;;;;;;;;;4834630;29;20038;-71
2022/06/29 13:32:26;;;;;;;5.30;4.18;;;;;;;;;;4839480;29;20129;-73
2022/06/29 13:34:52;;;;;;;6.53;4.20;;;;;;;;;;4838253;29;20058;-72
2022/06/29 13:37:17;;;;;;;5.63;4.15;;;;;;;;;;4840257;29;20026;-72
2022/06/29 13:39:42;;;;;;;4.70;3.90;;;;;;;;;;4846091;29;20064;-71
2022/06/29 13:42:08;;;;;;;6.78;4.72;;;;;;;;;;4834162;29;20041;-73
2022/06/29 13:44:33;;;;;;;5.32;4.20;;;;;;;;;;4841998;29;20097;-73
2022/06/29 13:46:59;;;;;;;4.95;4.28;;;;;;;;;;4841935;29;20204;-72
2022/06/29 13:49:24;;;;;;;5.40;3.88;;;;;;;;;;4830597;29;20038;-72
2022/06/29 13:51:50;;;;;;;4.32;3.92;;;;;;;;;;4850969;29;20476;-71
2022/06/29 13:54:15;;;;;;;7.68;3.80;;;;;;;;;;4842379;29;20045;-71
2022/06/29 13:56:41;;;;;;;6.80;4.40;;;;;;;;;;4843870;29;20125;-72
2022/06/29 13:59:06;;;;;;;6.15;3.83;;;;;;;;;;4845455;29;20034;-72
2022/06/29 14:01:32;;;;;;;5.03;3.97;;;;;;;;;;4848589;29;20041;-72
2022/06/29 14:03:57;;;;;;;6.68;3.90;;;;;;;;;;4848302;29;20030;-71
2022/06/29 14:06:24;;;;;;;5.15;4.38;;;;;;;;;;4848559;29;20038;-71
2022/06/29 14:08:49;;;;;;;5.90;3.90;;;;;;;;;;4843291;29;20042;-71
2022/06/29 14:11:15;;;;;;;4.30;3.90;;;;;;;;;;4847589;29;20041;-72
2022/06/29 14:13:41;;;;;;;4.63;3.88;;;;;;;;;;4845720;29;20045;-72
2022/06/29 14:16:07;;;;;;;4.03;3.63;;;;;;;;;;4845935;29;20037;-72
2022/06/29 14:18:33;;;;;;;5.03;3.88;;;;;;;;;;4827727;29;20053;-72
2022/06/29 14:21:01;;;;;;;5.85;3.70;;;;;;;;;;4846764;29;21479;-71
2022/06/29 14:23:26;;;;;;;5.00;4.03;;;;;;;;;;4842938;29;20529;-72
2022/06/29 14:25:52;;;;;;;5.43;3.80;;;;;;;;;;4846177;29;20038;-72
2022/06/29 14:28:18;;;;;;;4.88;3.75;;;;;;;;;;4840743;29;20034;-72
2022/06/29 14:30:44;;;;;;;4.55;4.07;;;;;;;;;;4844602;29;20038;-74
2022/06/29 14:33:09;;;;;;;4.25;3.85;;;;;;;;;;4850688;29;20048;-71
2022/06/29 14:35:35;;;;;;;5.57;3.85;;;;;;;;;;4842971;29;20037;-71
2022/06/29 14:38:03;;;;;;;6.07;3.95;;;;;;;;;;4828191;29;20037;-71
2022/06/29 14:40:31;;;;;;;6.85;4.10;;;;;;;;;;4844687;29;20065;-72
2022/06/29 14:42:57;;;;;;;4.93;3.85;;;;;;;;;;4844127;29;20034;-71
2022/06/29 14:45:22;;;;;;;4.43;3.90;;;;;;;;;;4845133;29;20042;-71
2022/06/29 14:47:48;;;;;;;5.32;3.63;;;;;;;;;;4836681;29;20080;-72
2022/06/29 14:50:14;;;;;;;4.97;3.88;;;;;;;;;;4848306;29;20418;-72
2022/06/29 14:52:40;;;;;;;4.10;3.60;;;;;;;;;;4832686;29;20166;-72
2022/06/29 14:55:07;;;;;;;3.83;3.53;;;;;;;;;;4829824;29;20036;-70
2022/06/29 14:57:33;;;;;;;4.90;3.60;;;;;;;;;;4848707;29;20084;-71
2022/06/29 14:59:58;;;;;;;4.53;3.53;;;;;;;;;;4847125;29;20536;-71
2022/06/29 15:02:24;;;;;;;4.10;3.72;;;;;;;;;;4829372;29;20049;-72